createdAt,value
2022-09-30T00:00:30.652Z,6.30
2022-09-30T00:02:56.923Z,6.00
2022-09-30T00:05:23.231Z,5.40
2022-09-30T00:07:49.908Z,5.00
2022-09-30T00:10:16.950Z,4.90
2022-09-30T00:12:43.176Z,5.10
2022-09-30T00:15:09.992Z,5.70
2022-09-30T00:17:36.125Z,5.50
2022-09-30T00:20:02.652Z,4.70
2022-09-30T00:22:28.718Z,5.20
2022-09-30T00:24:54.875Z,5.30
2022-09-30T00:27:21.018Z,5.20
2022-09-30T00:29:47.107Z,5.60
2022-09-30T00:32:13.285Z,5.80
2022-09-30T00:34:39.356Z,5.30
2022-09-30T00:37:05.486Z,5.40
2022-09-30T00:39:31.564Z,4.70
2022-09-30T00:42:06.219Z,4.60
2022-09-30T00:45:10.508Z,5.60
2022-09-30T00:47:43.162Z,5.10
2022-09-30T00:50:18.176Z,4.80
2022-09-30T00:52:50.263Z,5.20
2022-09-30T00:55:27.377Z,5.20
2022-09-30T00:57:54.696Z,4.80
2022-09-30T01:00:20.872Z,4.40
2022-09-30T01:02:49.659Z,3.60
2022-09-30T01:05:15.860Z,3.40
2022-09-30T01:07:42.050Z,3.20
2022-09-30T01:10:08.381Z,3.30
2022-09-30T01:12:34.559Z,2.90
2022-09-30T01:15:01.781Z,3.20
2022-09-30T01:17:33.829Z,3.30
2022-09-30T01:20:08.859Z,3.50
2022-09-30T01:23:05.769Z,3.10
2022-09-30T01:25:53.942Z,3.30
2022-09-30T01:28:45.069Z,3.20
2022-09-30T01:31:19.279Z,3.00
2022-09-30T01:34:07.260Z,3.90
2022-09-30T01:37:10.253Z,3.90
2022-09-30T01:39:56.737Z,3.10
2022-09-30T01:42:26.819Z,3.80
2022-09-30T01:45:12.805Z,3.50
2022-09-30T01:47:57.285Z,3.50
2022-09-30T01:50:28.445Z,3.40
2022-09-30T01:53:39.334Z,3.60
2022-09-30T01:56:08.434Z,4.10
2022-09-30T01:58:59.456Z,3.80
2022-09-30T02:01:38.871Z,3.40
2022-09-30T02:04:09.509Z,3.20
2022-09-30T02:06:41.261Z,3.10
2022-09-30T02:09:14.593Z,3.30
2022-09-30T02:11:42.267Z,2.70
2022-09-30T02:14:32.279Z,2.70
2022-09-30T02:17:42.814Z,3.40
2022-09-30T02:20:16.348Z,2.90
2022-09-30T02:22:47.937Z,3.10
2022-09-30T02:25:25.594Z,2.90
2022-09-30T02:28:01.033Z,3.10
2022-09-30T02:30:28.008Z,2.70
2022-09-30T02:33:00.719Z,2.80
2022-09-30T02:35:40.697Z,2.30
2022-09-30T02:38:30.465Z,2.00
2022-09-30T02:41:04.430Z,2.50
2022-09-30T02:43:31.658Z,2.70
2022-09-30T02:46:32.467Z,2.60
2022-09-30T02:49:10.434Z,4.90
2022-09-30T02:52:15.340Z,2.70
2022-09-30T02:54:53.320Z,2.50
2022-09-30T02:57:52.893Z,2.90
2022-09-30T03:00:18.960Z,2.60
2022-09-30T03:02:45.280Z,2.20
2022-09-30T03:05:12.893Z,2.30
2022-09-30T03:07:40.438Z,2.80
2022-09-30T03:10:15.819Z,3.20
2022-09-30T03:13:23.802Z,2.80
2022-09-30T03:16:00.778Z,2.70
2022-09-30T03:19:02.274Z,3.50
2022-09-30T03:21:55.500Z,3.40
2022-09-30T03:24:40.461Z,3.60
2022-09-30T03:27:15.594Z,2.50
2022-09-30T03:29:45.421Z,2.40
2022-09-30T03:32:20.241Z,2.90
2022-09-30T03:35:15.846Z,3.00
2022-09-30T03:38:07.043Z,3.20
2022-09-30T03:40:40.970Z,3.70
2022-09-30T03:43:18.809Z,3.30
2022-09-30T03:45:56.488Z,3.70
2022-09-30T03:48:25.235Z,4.10
2022-09-30T03:50:52.755Z,3.90
2022-09-30T03:53:19.764Z,3.70
2022-09-30T03:55:52.374Z,3.60
2022-09-30T03:58:22.777Z,3.40
2022-09-30T04:00:52.461Z,4.00
2022-09-30T04:03:21.152Z,3.80
2022-09-30T04:05:48.053Z,4.00
2022-09-30T04:08:14.813Z,4.10
2022-09-30T04:10:42.162Z,4.60
2022-09-30T04:13:08.491Z,4.40
2022-09-30T04:15:36.040Z,4.30
2022-09-30T04:18:03.546Z,4.40
2022-09-30T04:20:30.591Z,4.20
2022-09-30T04:22:58.843Z,4.10
2022-09-30T04:25:26.631Z,4.10
2022-09-30T04:27:52.901Z,5.00
2022-09-30T04:30:23.874Z,4.30
2022-09-30T04:32:51.257Z,4.90
2022-09-30T04:35:17.344Z,4.30
2022-09-30T04:37:44.841Z,3.80
2022-09-30T04:40:12.436Z,4.50
2022-09-30T04:42:42.246Z,4.00
2022-09-30T04:45:14.047Z,4.10
2022-09-30T04:47:44.926Z,3.20
2022-09-30T04:50:10.983Z,3.80
2022-09-30T04:52:37.971Z,4.00
2022-09-30T04:55:04.919Z,4.80
2022-09-30T04:57:31.009Z,4.00
2022-09-30T04:59:57.186Z,3.60
2022-09-30T05:02:23.401Z,4.30
2022-09-30T05:04:49.567Z,4.50
2022-09-30T05:07:15.869Z,5.20
2022-09-30T05:09:41.952Z,5.40
2022-09-30T05:12:08.023Z,6.00
2022-09-30T05:14:34.134Z,6.20
2022-09-30T05:17:00.585Z,8.30
2022-09-30T05:19:26.603Z,8.40
2022-09-30T05:21:52.739Z,8.10
2022-09-30T05:24:18.796Z,8.70
2022-09-30T05:26:44.865Z,8.50
2022-09-30T05:29:11.151Z,6.80
2022-09-30T05:31:37.507Z,6.60
2022-09-30T05:34:03.798Z,6.20
2022-09-30T05:36:30.232Z,6.60
2022-09-30T05:38:56.289Z,6.80
2022-09-30T05:41:25.390Z,7.00
2022-09-30T05:43:51.572Z,7.10
2022-09-30T05:46:19.710Z,7.40
2022-09-30T05:48:46.376Z,7.00
2022-09-30T05:51:17.514Z,6.60
2022-09-30T05:53:52.029Z,6.60
2022-09-30T05:56:18.378Z,7.20
2022-09-30T05:59:19.334Z,6.90
2022-09-30T06:11:18.085Z,6.40
2022-09-30T06:12:11.532Z,7.90
2022-09-30T06:14:37.628Z,8.30
2022-09-30T06:21:05.775Z,8.80
2022-09-30T06:23:34.545Z,9.50
2022-09-30T06:26:02.457Z,13.80
2022-09-30T06:28:28.722Z,60.50
2022-09-30T06:34:35.844Z,16.30
2022-09-30T06:37:01.922Z,10.90
2022-09-30T06:39:27.985Z,14.80
2022-09-30T06:42:04.298Z,14.10
2022-09-30T06:44:58.582Z,9.20
2022-09-30T06:47:25.996Z,9.60
2022-09-30T06:49:58.388Z,8.20
2022-09-30T06:52:26.259Z,4.50
2022-09-30T06:55:02.189Z,4.50
2022-09-30T06:57:28.290Z,4.70
2022-09-30T06:59:55.396Z,4.90
2022-09-30T07:02:21.566Z,4.10
2022-09-30T07:04:47.857Z,4.20
2022-09-30T07:07:13.964Z,3.70
2022-09-30T07:09:40.454Z,4.20
2022-09-30T07:12:16.379Z,2.80
2022-09-30T07:18:06.361Z,3.80
2022-09-30T07:21:11.810Z,3.10
2022-09-30T07:23:37.962Z,2.80
2022-09-30T07:26:05.114Z,2.50
2022-09-30T07:28:34.816Z,2.40
2022-09-30T07:31:31.244Z,2.40
2022-09-30T07:33:57.092Z,2.00
2022-09-30T07:36:32.581Z,3.20
2022-09-30T07:38:59.797Z,3.00
2022-09-30T07:41:28.658Z,3.10
2022-09-30T07:43:58.340Z,4.30
2022-09-30T07:47:02.843Z,2.80
2022-09-30T07:54:29.995Z,2.60
2022-09-30T07:57:09.884Z,2.50
2022-09-30T08:00:37.427Z,4.00
2022-09-30T08:06:06.132Z,2.80
2022-09-30T08:09:07.894Z,2.60
2022-09-30T08:12:14.087Z,2.30
2022-09-30T08:15:51.432Z,2.70
2022-09-30T08:18:18.192Z,2.70
2022-09-30T08:20:53.608Z,2.90
2022-09-30T08:23:26.581Z,3.50
2022-09-30T08:27:38.247Z,3.30
2022-09-30T08:30:04.819Z,2.80
2022-09-30T08:32:32.184Z,2.20
2022-09-30T08:34:58.299Z,2.30
2022-09-30T08:37:25.971Z,2.00
2022-09-30T08:39:53.191Z,2.00
2022-09-30T08:42:57.950Z,2.40
2022-09-30T08:45:42.862Z,2.70
2022-09-30T08:48:44.553Z,2.80
2022-09-30T08:51:44.718Z,3.30
2022-09-30T08:54:15.793Z,2.50
2022-09-30T08:56:44.541Z,2.70
2022-09-30T08:59:32.386Z,2.20
2022-09-30T09:02:16.488Z,1.70
2022-09-30T09:04:44.656Z,2.20
2022-09-30T09:07:21.698Z,2.40
2022-09-30T09:10:17.773Z,2.70
2022-09-30T09:12:57.440Z,2.50
2022-09-30T09:15:44.982Z,2.80
2022-09-30T09:18:23.550Z,2.80
2022-09-30T09:20:56.336Z,1.60
2022-09-30T09:23:32.509Z,1.70
2022-09-30T09:25:59.816Z,1.40
2022-09-30T09:29:08.175Z,2.20
2022-09-30T09:31:34.684Z,2.60
2022-09-30T09:34:11.256Z,3.50
2022-09-30T09:36:50.320Z,2.70
2022-09-30T09:39:41.231Z,1.70
2022-09-30T09:42:13.395Z,1.90
2022-09-30T09:44:51.570Z,3.30
2022-09-30T09:47:19.217Z,3.60
2022-09-30T09:49:56.911Z,4.50
2022-09-30T09:52:42.626Z,3.00
2022-09-30T09:55:10.783Z,3.50
2022-09-30T09:57:37.092Z,2.40
2022-09-30T10:00:29.094Z,2.30
2022-09-30T10:03:03.976Z,2.30
2022-09-30T10:05:39.244Z,2.50
2022-09-30T10:08:15.293Z,3.00
2022-09-30T10:10:45.710Z,2.10
2022-09-30T10:13:30.496Z,2.00
2022-09-30T10:15:59.087Z,1.80
2022-09-30T10:18:25.046Z,1.80
2022-09-30T10:20:55.338Z,1.50
2022-09-30T10:23:45.475Z,1.40
2022-09-30T10:26:14.545Z,1.30
2022-09-30T10:28:59.213Z,2.40
2022-09-30T10:31:35.976Z,1.70
2022-09-30T10:34:26.274Z,1.80
2022-09-30T10:36:56.884Z,1.60
2022-09-30T10:39:26.947Z,1.40
2022-09-30T10:42:26.349Z,1.30
2022-09-30T10:44:53.615Z,1.40
2022-09-30T10:47:22.762Z,1.80
2022-09-30T10:49:50.927Z,1.40
2022-09-30T10:52:21.541Z,1.40
2022-09-30T10:54:51.246Z,1.30
2022-09-30T10:57:30.848Z,1.60
2022-09-30T11:00:04.812Z,1.40
2022-09-30T11:02:56.063Z,1.60
2022-09-30T11:05:26.879Z,1.30
2022-09-30T11:08:23.768Z,1.40
2022-09-30T11:10:59.614Z,1.40
2022-09-30T11:13:36.971Z,1.60
2022-09-30T11:16:13.121Z,1.20
2022-09-30T11:19:07.127Z,1.30
2022-09-30T11:21:40.927Z,1.30
2022-09-30T11:24:31.932Z,1.30
2022-09-30T11:27:09.491Z,1.40
2022-09-30T11:29:49.267Z,1.30
2022-09-30T11:32:43.362Z,1.10
2022-09-30T11:35:41.642Z,1.30
2022-09-30T11:38:17.997Z,1.10
2022-09-30T11:41:11.665Z,1.20
2022-09-30T11:43:51.841Z,1.30
2022-09-30T11:46:40.198Z,1.80
2022-09-30T11:49:15.480Z,1.30
2022-09-30T11:51:53.981Z,2.20
2022-09-30T11:54:54.075Z,1.60
2022-09-30T11:57:37.351Z,1.50
2022-09-30T12:00:15.392Z,1.40
2022-09-30T12:02:57.068Z,1.30
2022-09-30T12:05:45.604Z,1.40
2022-09-30T12:08:20.025Z,1.70
2022-09-30T12:11:02.238Z,1.40
2022-09-30T12:13:36.834Z,2.50
2022-09-30T12:16:08.420Z,1.50
2022-09-30T12:18:40.947Z,5.80
2022-09-30T12:21:20.118Z,1.30
2022-09-30T12:23:59.070Z,2.10
2022-09-30T12:26:25.241Z,1.40
2022-09-30T12:29:20.980Z,1.90
2022-09-30T12:32:09.467Z,1.60
2022-09-30T12:34:45.298Z,1.30
2022-09-30T12:37:21.526Z,1.40
2022-09-30T12:40:05.933Z,1.40
2022-09-30T12:43:09.375Z,1.60
2022-09-30T12:45:47.732Z,3.70
2022-09-30T12:48:21.097Z,1.50
2022-09-30T12:50:50.199Z,1.90
2022-09-30T12:53:26.748Z,1.80
2022-09-30T12:55:54.874Z,1.50
2022-09-30T12:58:31.088Z,1.70
2022-09-30T13:01:12.315Z,1.40
2022-09-30T13:03:48.884Z,2.30
2022-09-30T13:06:16.950Z,1.60
2022-09-30T13:08:56.641Z,1.10
2022-09-30T13:11:30.921Z,1.40
2022-09-30T13:14:11.528Z,1.40
2022-09-30T13:17:00.877Z,3.10
2022-09-30T13:19:41.238Z,2.10
2022-09-30T13:22:29.207Z,2.40
2022-09-30T13:24:58.254Z,2.40
2022-09-30T13:27:40.258Z,1.70
2022-09-30T13:30:15.808Z,1.70
2022-09-30T13:33:05.826Z,2.20
2022-09-30T13:35:39.254Z,2.70
2022-09-30T13:38:11.479Z,4.50
2022-09-30T13:41:02.183Z,4.30
2022-09-30T13:43:39.934Z,2.80
2022-09-30T13:46:22.536Z,2.80
2022-09-30T13:48:54.556Z,2.90
2022-09-30T13:51:24.503Z,2.40
2022-09-30T13:53:57.808Z,2.00
2022-09-30T13:56:30.125Z,2.20
2022-09-30T13:59:15.741Z,2.40
2022-09-30T14:02:13.612Z,2.00
2022-09-30T14:04:54.918Z,2.10
2022-09-30T14:07:36.686Z,2.20
2022-09-30T14:10:58.993Z,2.90
2022-09-30T14:13:49.281Z,2.10
2022-09-30T14:16:40.514Z,2.20
2022-09-30T14:19:30.453Z,1.90
2022-09-30T14:22:02.151Z,1.90
2022-09-30T14:24:37.550Z,1.70
2022-09-30T14:27:04.124Z,2.00
2022-09-30T14:30:03.984Z,2.30
2022-09-30T14:32:33.630Z,2.30
2022-09-30T14:35:04.109Z,2.20
2022-09-30T14:37:35.957Z,3.00
2022-09-30T14:40:03.399Z,2.90
2022-09-30T14:42:32.898Z,3.20
2022-09-30T14:45:04.113Z,2.80
2022-09-30T14:47:42.882Z,2.70
2022-09-30T14:50:20.415Z,2.50
2022-09-30T14:52:49.557Z,2.20
2022-09-30T14:55:30.815Z,2.50
2022-09-30T14:58:18.647Z,2.20
2022-09-30T15:00:50.071Z,2.30
2022-09-30T15:03:18.452Z,2.10
2022-09-30T15:05:44.537Z,2.20
2022-09-30T15:08:16.305Z,1.80
2022-09-30T15:10:51.479Z,2.30
2022-09-30T15:13:19.590Z,2.60
2022-09-30T15:15:45.794Z,3.90
2022-09-30T15:18:41.661Z,4.30
2022-09-30T15:21:11.780Z,3.50
2022-09-30T15:23:42.127Z,9.50
2022-09-30T15:26:11.565Z,5.00
2022-09-30T15:28:39.287Z,2.90
2022-09-30T15:31:08.061Z,2.80
2022-09-30T15:33:34.690Z,2.30
2022-09-30T15:36:03.890Z,2.20
2022-09-30T15:38:33.021Z,2.30
2022-09-30T15:41:05.625Z,2.40
2022-09-30T15:43:44.199Z,2.50
2022-09-30T15:46:31.145Z,2.20
2022-09-30T15:49:06.757Z,2.00
2022-09-30T15:51:41.999Z,3.80
2022-09-30T15:54:14.219Z,3.50
2022-09-30T15:56:40.508Z,3.60
2022-09-30T15:59:12.139Z,2.80
2022-09-30T16:01:47.930Z,2.60
2022-09-30T16:04:17.016Z,2.30
2022-09-30T16:06:48.152Z,2.20
2022-09-30T16:09:17.278Z,2.50
2022-09-30T16:11:47.237Z,2.70
2022-09-30T16:14:24.178Z,2.30
2022-09-30T16:17:00.541Z,2.40
2022-09-30T16:19:31.135Z,2.40
2022-09-30T16:21:58.315Z,3.00
2022-09-30T16:24:29.863Z,2.80
2022-09-30T16:26:58.946Z,3.00
2022-09-30T16:29:26.320Z,2.80
2022-09-30T16:31:56.254Z,2.90
2022-09-30T16:34:40.727Z,3.20
2022-09-30T16:37:17.035Z,3.10
2022-09-30T16:39:43.069Z,3.60
2022-09-30T16:42:14.165Z,3.30
2022-09-30T16:44:41.939Z,3.30
2022-09-30T16:47:13.021Z,3.40
2022-09-30T16:49:39.863Z,3.90
2022-09-30T16:54:46.451Z,4.00
2022-09-30T16:57:13.982Z,4.70
2022-09-30T17:00:00.296Z,12.20
2022-09-30T17:02:26.917Z,11.60
2022-09-30T17:04:53.263Z,9.70
2022-09-30T17:07:19.286Z,7.10
2022-09-30T17:09:45.359Z,6.60
2022-09-30T17:12:11.677Z,5.80
2022-09-30T17:14:39.471Z,5.90
2022-09-30T17:17:08.752Z,7.50
2022-09-30T17:19:38.609Z,6.80
2022-09-30T17:22:04.883Z,7.30
2022-09-30T17:24:31.443Z,6.70
2022-09-30T17:27:07.054Z,7.70
2022-09-30T17:29:38.879Z,7.30
2022-09-30T17:32:08.108Z,7.50
2022-09-30T17:34:34.762Z,7.30
2022-09-30T17:37:00.892Z,8.20
2022-09-30T17:39:30.118Z,7.20
2022-09-30T17:42:14.944Z,7.50
2022-09-30T17:44:41.033Z,7.30
2022-09-30T17:47:07.118Z,6.50
2022-09-30T17:49:36.804Z,8.40
2022-09-30T17:52:03.980Z,8.50
2022-09-30T17:54:31.570Z,7.60
2022-09-30T17:56:58.071Z,8.80
2022-09-30T17:59:26.443Z,7.60
2022-09-30T18:01:55.855Z,8.60
2022-09-30T18:04:24.171Z,8.70
2022-09-30T18:06:50.373Z,8.50
2022-09-30T18:09:16.438Z,8.50
2022-09-30T18:11:43.920Z,8.80
2022-09-30T18:14:11.190Z,10.60
2022-09-30T18:16:37.330Z,9.90
2022-09-30T18:19:05.581Z,11.10
2022-09-30T18:21:36.683Z,11.10
2022-09-30T18:24:04.314Z,11.20
2022-09-30T18:26:33.456Z,11.50
2022-09-30T18:29:03.462Z,12.00
2022-09-30T18:31:36.302Z,11.80
2022-09-30T18:34:04.413Z,11.50
2022-09-30T18:36:32.110Z,13.20
2022-09-30T18:39:00.529Z,12.60
2022-09-30T18:41:27.643Z,12.10
2022-09-30T18:44:05.075Z,12.40
2022-09-30T18:46:31.323Z,14.30
2022-09-30T18:48:57.500Z,14.40
2022-09-30T18:51:24.700Z,15.30
2022-09-30T18:53:57.370Z,15.70
2022-09-30T18:56:26.579Z,13.30
2022-09-30T18:58:52.818Z,14.30
2022-09-30T19:01:20.438Z,13.40
2022-09-30T19:03:46.651Z,13.30
2022-09-30T19:06:13.911Z,14.50
2022-09-30T19:08:40.156Z,12.50
2022-09-30T19:11:12.937Z,12.40
2022-09-30T19:17:53.254Z,8.00
2022-09-30T19:31:44.932Z,6.40
2022-09-30T19:34:29.885Z,6.80
2022-09-30T19:36:59.470Z,6.20
2022-09-30T19:39:36.235Z,6.90
2022-09-30T19:42:09.013Z,6.10
2022-09-30T19:44:37.394Z,5.90
2022-09-30T19:47:04.018Z,6.30
2022-09-30T19:49:30.982Z,6.20
2022-09-30T19:51:57.108Z,6.80
2022-09-30T19:54:34.577Z,6.10
2022-09-30T19:57:04.314Z,5.90
2022-09-30T19:59:30.747Z,5.50
2022-09-30T20:01:58.094Z,5.80
2022-09-30T20:04:24.345Z,5.50
2022-09-30T20:06:53.342Z,5.80
2022-09-30T20:09:20.062Z,5.90
2022-09-30T20:11:46.355Z,6.00
2022-09-30T20:14:31.062Z,6.20
2022-09-30T20:16:57.128Z,5.80
2022-09-30T20:19:23.668Z,5.40
2022-09-30T20:21:50.018Z,5.10
2022-09-30T20:24:17.672Z,5.20
2022-09-30T20:26:44.830Z,5.20
2022-09-30T20:29:12.059Z,6.10
2022-09-30T20:31:41.405Z,6.00
2022-09-30T20:34:13.487Z,5.40
2022-09-30T20:36:40.646Z,5.10
2022-09-30T20:39:11.034Z,5.30
2022-09-30T20:41:39.296Z,5.10
2022-09-30T20:44:08.585Z,4.80
2022-09-30T20:46:34.985Z,4.70
2022-09-30T20:49:02.139Z,5.10
2022-09-30T20:51:29.398Z,4.10
2022-09-30T20:53:57.315Z,3.90
2022-09-30T20:56:25.569Z,4.80
2022-09-30T20:58:52.720Z,4.60
2022-09-30T21:01:21.037Z,5.00
2022-09-30T21:03:50.728Z,4.60
2022-09-30T21:06:24.700Z,4.80
2022-09-30T21:08:51.353Z,5.00
2022-09-30T21:11:18.851Z,4.50
2022-09-30T21:13:48.582Z,4.30
2022-09-30T21:16:17.894Z,3.90
2022-09-30T21:18:44.615Z,3.50
2022-09-30T21:21:13.077Z,3.90
2022-09-30T21:23:40.211Z,3.20
2022-09-30T21:26:09.269Z,3.30
2022-09-30T21:28:36.499Z,3.20
2022-09-30T21:31:07.994Z,3.30
2022-09-30T21:33:35.582Z,3.90
2022-09-30T21:36:04.351Z,3.80
2022-09-30T21:38:31.450Z,3.70
2022-09-30T21:40:59.909Z,3.80
2022-09-30T21:43:30.301Z,4.00
2022-09-30T21:46:01.359Z,4.00
2022-09-30T21:48:28.345Z,4.30
2022-09-30T21:50:55.958Z,4.10
2022-09-30T21:53:26.677Z,4.30
2022-09-30T21:55:54.462Z,3.70
2022-09-30T21:58:23.442Z,4.50
2022-09-30T22:00:50.291Z,4.50
2022-09-30T22:03:16.755Z,3.70
2022-09-30T22:05:42.961Z,3.70
2022-09-30T22:08:09.086Z,3.60
2022-09-30T22:10:35.119Z,3.80
2022-09-30T22:13:01.233Z,4.20
2022-09-30T22:15:27.535Z,4.40
2022-09-30T22:17:53.881Z,4.40
2022-09-30T22:20:20.573Z,3.80
2022-09-30T22:22:49.745Z,3.90
2022-09-30T22:25:15.952Z,3.80
2022-09-30T22:27:42.551Z,3.90
2022-09-30T22:30:09.341Z,4.00
2022-09-30T22:32:35.425Z,3.70
2022-09-30T22:35:21.192Z,4.10
2022-09-30T22:38:09.120Z,4.30
2022-09-30T22:40:35.750Z,4.30
2022-09-30T22:43:03.969Z,3.80
2022-09-30T22:45:30.063Z,3.90
2022-09-30T22:47:58.000Z,2.80
2022-09-30T22:50:27.869Z,3.10
2022-09-30T22:52:53.909Z,3.20
2022-09-30T22:55:20.114Z,3.10
2022-09-30T22:57:46.131Z,3.40
2022-09-30T23:00:12.733Z,3.80
2022-09-30T23:02:38.894Z,3.50
2022-09-30T23:05:05.559Z,3.00
2022-09-30T23:07:31.694Z,3.10
2022-09-30T23:09:57.789Z,3.60
2022-09-30T23:12:24.303Z,3.30
2022-09-30T23:14:50.358Z,3.30
2022-09-30T23:17:17.129Z,3.20
2022-09-30T23:19:43.159Z,3.30
2022-09-30T23:22:09.850Z,3.00
2022-09-30T23:24:35.975Z,3.50
2022-09-30T23:27:02.633Z,3.30
2022-09-30T23:29:28.697Z,3.30
2022-09-30T23:31:54.797Z,3.70
2022-09-30T23:34:20.851Z,3.30
2022-09-30T23:36:46.900Z,3.40
2022-09-30T23:39:17.968Z,3.10
2022-09-30T23:41:48.937Z,3.40
2022-09-30T23:44:19.468Z,3.20
2022-09-30T23:47:05.613Z,3.40
2022-09-30T23:49:34.826Z,3.60
2022-09-30T23:52:13.173Z,3.20
2022-09-30T23:54:41.015Z,3.50
2022-09-30T23:57:07.891Z,3.50
2022-09-30T23:59:33.937Z,3.50
